Time;durP1;ratioP1;P1;durP2;ratioP2;P2;SDS_P1;SDS_P2;PMS_P1;PMS_P2;Temp;Humidity;BMP_temperature;BMP_pressure;BME280_temperature;BME280_humidity;BME280_pressure;Samples;Min_cycle;Max_cycle;Signal;HPM_P1;HPM_P2
2021/09/05 00:01:30;;;;;;;0.10;0.03;;;;;;;;;;5042637;28;20033;-72
2021/09/05 00:04:00;;;;;;;1.55;0.10;;;;;;;;;;5040202;28;20079;-72
2021/09/05 00:06:28;;;;;;;0.47;0.10;;;;;;;;;;5039884;28;20037;-70
2021/09/05 00:08:56;;;;;;;1.30;0.20;;;;;;;;;;5036110;28;20017;-70
2021/09/05 00:11:23;;;;;;;0.10;0.08;;;;;;;;;;5035412;28;20067;-68
2021/09/05 00:13:50;;;;;;;0.75;0.30;;;;;;;;;;5038412;28;20026;-71
2021/09/05 00:16:17;;;;;;;0.45;0.10;;;;;;;;;;5037608;28;20428;-70
2021/09/05 00:18:45;;;;;;;1.38;0.55;;;;;;;;;;5039080;28;20036;-70
2021/09/05 00:21:12;;;;;;;0.85;0.13;;;;;;;;;;5039380;28;20022;-71
2021/09/05 00:23:39;;;;;;;1.33;0.10;;;;;;;;;;5034594;28;20017;-70
2021/09/05 00:26:09;;;;;;;0.47;0.10;;;;;;;;;;5040153;28;20117;-71
2021/09/05 00:28:36;;;;;;;0.55;0.10;;;;;;;;;;5032579;28;20755;-71
2021/09/05 00:31:03;;;;;;;0.55;0.10;;;;;;;;;;5041629;28;20033;-72
2021/09/05 00:33:31;;;;;;;0.68;0.10;;;;;;;;;;5033564;28;20024;-71
2021/09/05 00:35:58;;;;;;;0.80;0.30;;;;;;;;;;5043451;28;20100;-71
2021/09/05 00:38:28;;;;;;;0.32;0.17;;;;;;;;;;5053367;28;20387;-71
2021/09/05 00:40:56;;;;;;;0.30;0.20;;;;;;;;;;5040605;28;20435;-73
2021/09/05 00:43:23;;;;;;;1.65;0.20;;;;;;;;;;5033897;28;20057;-70
2021/09/05 00:45:50;;;;;;;1.85;0.10;;;;;;;;;;5039814;28;20095;-70
2021/09/05 00:48:17;;;;;;;0.80;0.00;;;;;;;;;;5050934;28;20068;-70
2021/09/05 00:50:44;;;;;;;1.23;0.10;;;;;;;;;;5033640;28;20494;-72
2021/09/05 00:53:11;;;;;;;1.10;0.13;;;;;;;;;;5033000;28;20021;-71
2021/09/05 00:55:39;;;;;;;0.77;0.10;;;;;;;;;;5032807;28;20029;-71
2021/09/05 00:58:09;;;;;;;0.22;0.10;;;;;;;;;;5031284;28;20484;-70
2021/09/05 01:00:36;;;;;;;0.25;0.10;;;;;;;;;;5041803;28;20389;-70
2021/09/05 01:03:04;;;;;;;0.47;0.00;;;;;;;;;;5048982;28;20107;-70
2021/09/05 01:05:32;;;;;;;0.70;0.10;;;;;;;;;;5049767;28;20116;-70
2021/09/05 01:07:59;;;;;;;0.88;0.20;;;;;;;;;;5043526;28;20041;-70
2021/09/05 01:10:27;;;;;;;1.20;0.10;;;;;;;;;;5033723;28;20572;-71
2021/09/05 01:12:54;;;;;;;0.70;0.20;;;;;;;;;;5032448;28;20045;-70
2021/09/05 01:15:21;;;;;;;0.10;0.10;;;;;;;;;;5040398;28;20032;-70
2021/09/05 01:17:48;;;;;;;1.00;0.10;;;;;;;;;;5034499;28;20108;-69
2021/09/05 01:20:15;;;;;;;1.13;0.30;;;;;;;;;;5037875;28;20029;-70
2021/09/05 01:22:42;;;;;;;1.08;0.05;;;;;;;;;;5039452;28;20067;-70
2021/09/05 01:25:10;;;;;;;1.38;0.30;;;;;;;;;;5033563;28;20025;-71
2021/09/05 01:27:37;;;;;;;0.20;0.10;;;;;;;;;;5043385;28;20163;-70
2021/09/05 01:30:04;;;;;;;0.57;0.10;;;;;;;;;;5034541;28;20478;-70
2021/09/05 01:32:31;;;;;;;1.55;0.20;;;;;;;;;;5039911;28;20154;-70
2021/09/05 01:34:58;;;;;;;2.13;0.10;;;;;;;;;;5036359;28;20103;-71
2021/09/05 01:37:26;;;;;;;1.23;0.17;;;;;;;;;;5031551;28;20780;-70
2021/09/05 01:39:53;;;;;;;1.75;0.15;;;;;;;;;;5039740;28;20032;-69
2021/09/05 01:42:20;;;;;;;0.68;0.20;;;;;;;;;;5032342;28;20033;-70
2021/09/05 01:44:47;;;;;;;1.38;0.20;;;;;;;;;;5032394;28;20458;-71
2021/09/05 01:47:14;;;;;;;0.32;0.10;;;;;;;;;;5034155;28;20031;-71
2021/09/05 01:49:42;;;;;;;0.77;0.13;;;;;;;;;;5040280;28;20029;-69
2021/09/05 01:52:09;;;;;;;2.78;0.20;;;;;;;;;;5037143;28;20474;-72
2021/09/05 01:54:36;;;;;;;1.10;0.20;;;;;;;;;;5034825;28;20030;-71
2021/09/05 01:57:03;;;;;;;0.40;0.20;;;;;;;;;;5033849;28;20025;-70
2021/09/05 01:59:30;;;;;;;1.10;0.28;;;;;;;;;;5041578;28;20026;-71
2021/09/05 02:01:57;;;;;;;2.15;0.17;;;;;;;;;;5033032;28;20033;-70
2021/09/05 02:04:24;;;;;;;1.10;0.30;;;;;;;;;;5043254;28;20016;-70
2021/09/05 02:06:51;;;;;;;1.27;0.30;;;;;;;;;;5038784;28;20064;-71
2021/09/05 02:09:18;;;;;;;0.40;0.30;;;;;;;;;;5041556;28;20036;-70
2021/09/05 02:11:47;;;;;;;1.02;0.20;;;;;;;;;;5031393;28;20041;-72
2021/09/05 02:14:14;;;;;;;2.38;0.20;;;;;;;;;;5035871;28;20024;-72
2021/09/05 02:16:41;;;;;;;2.05;0.40;;;;;;;;;;5033010;28;20039;-72
2021/09/05 02:19:08;;;;;;;3.45;0.30;;;;;;;;;;5037304;28;20029;-71
2021/09/05 02:21:35;;;;;;;1.10;0.22;;;;;;;;;;5035610;28;20105;-72
2021/09/05 02:24:03;;;;;;;0.65;0.17;;;;;;;;;;5031962;28;20022;-72
2021/09/05 02:26:30;;;;;;;1.50;0.20;;;;;;;;;;5035518;28;20065;-68
2021/09/05 02:28:57;;;;;;;0.90;0.30;;;;;;;;;;5043915;28;20124;-71
2021/09/05 02:31:24;;;;;;;4.80;0.50;;;;;;;;;;5031852;28;20026;-71
2021/09/05 02:33:51;;;;;;;0.90;0.30;;;;;;;;;;5037574;28;20028;-70
2021/09/05 02:36:18;;;;;;;1.13;0.30;;;;;;;;;;5040092;28;20031;-69
2021/09/05 02:38:45;;;;;;;1.15;0.10;;;;;;;;;;5039088;28;20155;-71
2021/09/05 02:41:13;;;;;;;0.35;0.10;;;;;;;;;;5031603;28;20022;-70
2021/09/05 02:43:40;;;;;;;1.13;0.10;;;;;;;;;;5038124;28;20104;-70
2021/09/05 02:46:07;;;;;;;1.40;0.40;;;;;;;;;;5029056;28;20033;-68
2021/09/05 02:48:34;;;;;;;0.28;0.10;;;;;;;;;;5035473;28;20037;-70
2021/09/05 02:51:01;;;;;;;1.23;0.20;;;;;;;;;;5038996;28;20064;-70
2021/09/05 02:53:28;;;;;;;0.40;0.10;;;;;;;;;;5041038;28;20363;-71
2021/09/05 02:55:55;;;;;;;1.10;0.20;;;;;;;;;;5030847;28;20029;-69
2021/09/05 02:58:22;;;;;;;1.25;0.10;;;;;;;;;;5032308;28;20095;-70
2021/09/05 03:00:49;;;;;;;0.40;0.20;;;;;;;;;;5032021;28;20017;-71
2021/09/05 03:03:16;;;;;;;1.38;0.15;;;;;;;;;;5030203;28;20433;-72
2021/09/05 03:05:44;;;;;;;1.70;0.50;;;;;;;;;;5037616;28;20025;-71
2021/09/05 03:08:11;;;;;;;0.98;0.38;;;;;;;;;;5037728;28;20032;-70
2021/09/05 03:10:38;;;;;;;0.90;0.40;;;;;;;;;;5036225;28;20104;-70
2021/09/05 03:13:05;;;;;;;0.43;0.10;;;;;;;;;;5035141;28;20013;-70
2021/09/05 03:15:32;;;;;;;0.95;0.20;;;;;;;;;;5035324;28;20044;-71
2021/09/05 03:17:59;;;;;;;0.57;0.28;;;;;;;;;;5033809;28;20120;-72
2021/09/05 03:20:26;;;;;;;1.25;0.10;;;;;;;;;;5035269;28;20060;-71
2021/09/05 03:22:53;;;;;;;0.73;0.20;;;;;;;;;;5033222;28;20063;-72
2021/09/05 03:25:21;;;;;;;0.40;0.00;;;;;;;;;;5036430;28;20030;-70
2021/09/05 03:27:48;;;;;;;0.75;0.10;;;;;;;;;;5035056;28;20041;-70
2021/09/05 03:30:15;;;;;;;1.38;0.20;;;;;;;;;;5034913;28;20029;-69
2021/09/05 03:32:42;;;;;;;0.52;0.10;;;;;;;;;;5033926;28;20021;-71
2021/09/05 03:35:10;;;;;;;1.75;0.10;;;;;;;;;;5036391;28;20478;-71
2021/09/05 03:37:37;;;;;;;0.28;0.10;;;;;;;;;;5035687;28;20494;-72
2021/09/05 03:40:04;;;;;;;0.65;0.30;;;;;;;;;;5051163;28;20036;-70
2021/09/05 03:42:31;;;;;;;0.20;0.00;;;;;;;;;;5045158;28;20034;-72
2021/09/05 03:44:58;;;;;;;0.15;0.05;;;;;;;;;;5034800;28;20028;-71
2021/09/05 03:47:26;;;;;;;0.20;0.10;;;;;;;;;;5037465;28;20075;-71
2021/09/05 03:49:53;;;;;;;0.20;0.00;;;;;;;;;;5036848;28;20540;-70
2021/09/05 03:52:21;;;;;;;0.52;0.10;;;;;;;;;;5042853;28;20029;-71
2021/09/05 03:54:48;;;;;;;1.90;0.00;;;;;;;;;;5034321;28;20021;-71
2021/09/05 03:57:15;;;;;;;0.77;0.20;;;;;;;;;;5037626;28;20446;-71
2021/09/05 03:59:42;;;;;;;0.10;0.10;;;;;;;;;;5034380;28;20028;-70
2021/09/05 04:02:09;;;;;;;1.70;0.10;;;;;;;;;;5037914;28;20021;-69
2021/09/05 04:04:36;;;;;;;1.40;0.10;;;;;;;;;;5049291;28;20036;-68
2021/09/05 04:07:04;;;;;;;2.55;0.20;;;;;;;;;;5036696;28;20084;-70
2021/09/05 04:12:18;;;;;;;0.10;0.00;;;;;;;;;;5034710;28;20036;-70
2021/09/05 04:14:45;;;;;;;0.25;0.10;;;;;;;;;;5037096;28;20543;-69
2021/09/05 04:17:12;;;;;;;0.20;0.10;;;;;;;;;;5034345;28;20029;-70
2021/09/05 04:19:39;;;;;;;0.22;0.00;;;;;;;;;;5045549;28;20029;-69
2021/09/05 04:22:06;;;;;;;0.73;0.10;;;;;;;;;;5045418;28;20034;-68
2021/09/05 04:24:33;;;;;;;0.28;0.10;;;;;;;;;;5038110;28;20067;-70
2021/09/05 04:27:00;;;;;;;0.17;0.03;;;;;;;;;;5054295;28;20033;-69
2021/09/05 04:29:28;;;;;;;0.38;0.10;;;;;;;;;;5053418;28;20385;-69
2021/09/05 04:31:55;;;;;;;0.52;0.10;;;;;;;;;;5042246;28;20052;-69
2021/09/05 04:34:22;;;;;;;0.98;0.30;;;;;;;;;;5038394;28;20574;-70
2021/09/05 04:36:49;;;;;;;0.32;0.10;;;;;;;;;;5034920;28;20496;-70
2021/09/05 04:39:16;;;;;;;0.20;0.00;;;;;;;;;;5034058;28;20056;-69
2021/09/05 04:41:45;;;;;;;0.60;0.15;;;;;;;;;;5040846;28;20389;-70
2021/09/05 04:44:12;;;;;;;0.10;0.00;;;;;;;;;;5049837;28;20389;-69
2021/09/05 04:46:39;;;;;;;0.95;0.20;;;;;;;;;;5035851;28;20049;-69
2021/09/05 04:49:07;;;;;;;0.65;0.20;;;;;;;;;;5042547;28;20055;-68
2021/09/05 04:51:34;;;;;;;0.50;0.15;;;;;;;;;;5041251;28;20028;-68
2021/09/05 04:54:01;;;;;;;0.20;0.10;;;;;;;;;;5051101;28;20059;-70
2021/09/05 04:56:28;;;;;;;1.08;0.10;;;;;;;;;;5038490;28;20120;-68
2021/09/05 04:58:55;;;;;;;1.58;0.10;;;;;;;;;;5040273;28;20049;-69
2021/09/05 05:01:22;;;;;;;0.45;0.10;;;;;;;;;;5042709;28;20021;-70
2021/09/05 05:03:49;;;;;;;0.28;0.10;;;;;;;;;;5043387;28;20028;-70
2021/09/05 05:06:16;;;;;;;0.25;0.10;;;;;;;;;;5038109;28;20029;-71
2021/09/05 05:08:43;;;;;;;0.30;0.10;;;;;;;;;;5034207;28;20018;-69
2021/09/05 05:11:16;;;;;;;1.30;0.55;;;;;;;;;;5049389;28;20022;-69
2021/09/05 05:13:43;;;;;;;0.40;0.10;;;;;;;;;;5032880;28;20075;-69
2021/09/05 05:16:10;;;;;;;0.38;0.15;;;;;;;;;;5033233;28;20029;-69
2021/09/05 05:18:37;;;;;;;0.77;0.30;;;;;;;;;;5036181;28;20033;-70
2021/09/05 05:21:04;;;;;;;0.52;0.20;;;;;;;;;;5037855;28;20060;-69
2021/09/05 05:23:32;;;;;;;0.80;0.20;;;;;;;;;;5032664;28;20022;-68
2021/09/05 05:25:59;;;;;;;0.75;0.20;;;;;;;;;;5051925;28;20025;-70
2021/09/05 05:28:26;;;;;;;0.32;0.10;;;;;;;;;;5036834;28;20034;-70
2021/09/05 05:30:53;;;;;;;0.77;0.17;;;;;;;;;;5032112;28;20036;-70
2021/09/05 05:33:20;;;;;;;0.10;0.10;;;;;;;;;;5051060;28;20063;-68
2021/09/05 05:35:47;;;;;;;0.10;0.00;;;;;;;;;;5050447;28;20051;-69
2021/09/05 05:38:15;;;;;;;1.85;0.20;;;;;;;;;;5043208;28;20053;-69
2021/09/05 05:40:42;;;;;;;0.32;0.20;;;;;;;;;;5036115;28;20128;-69
2021/09/05 05:43:09;;;;;;;0.10;0.10;;;;;;;;;;5032790;28;20063;-71
2021/09/05 05:45:36;;;;;;;0.40;0.08;;;;;;;;;;5047018;28;20059;-69
2021/09/05 05:48:03;;;;;;;0.82;0.10;;;;;;;;;;5051336;28;20048;-70
2021/09/05 05:50:30;;;;;;;0.55;0.10;;;;;;;;;;5033489;28;20026;-70
2021/09/05 05:52:57;;;;;;;1.02;0.20;;;;;;;;;;5033493;28;20096;-69
2021/09/05 05:55:24;;;;;;;0.08;0.00;;;;;;;;;;5037015;28;20479;-69
2021/09/05 05:57:52;;;;;;;0.10;0.00;;;;;;;;;;5034575;28;20044;-70
2021/09/05 06:00:20;;;;;;;0.13;0.10;;;;;;;;;;5039473;28;20037;-70
2021/09/05 06:02:47;;;;;;;0.35;0.00;;;;;;;;;;5037106;28;20431;-71
2021/09/05 06:05:15;;;;;;;0.15;0.10;;;;;;;;;;5032135;28;20075;-71
2021/09/05 06:07:42;;;;;;;0.20;0.10;;;;;;;;;;5031863;28;20051;-69
2021/09/05 06:10:09;;;;;;;0.63;0.10;;;;;;;;;;5032539;28;20383;-67
2021/09/05 06:12:36;;;;;;;1.38;0.32;;;;;;;;;;5037007;28;20026;-68
2021/09/05 06:15:04;;;;;;;0.15;0.03;;;;;;;;;;5034574;28;20036;-69
2021/09/05 06:17:31;;;;;;;0.22;0.20;;;;;;;;;;5041431;28;20031;-69
2021/09/05 06:19:58;;;;;;;0.32;0.10;;;;;;;;;;5035071;28;20448;-69
2021/09/05 06:22:25;;;;;;;0.40;0.05;;;;;;;;;;5031050;28;20385;-71
2021/09/05 06:24:52;;;;;;;0.13;0.00;;;;;;;;;;5030925;28;20021;-70
2021/09/05 06:27:19;;;;;;;0.73;0.10;;;;;;;;;;5035090;28;20502;-70
2021/09/05 06:29:47;;;;;;;0.52;0.10;;;;;;;;;;5031816;28;20034;-70
2021/09/05 06:32:14;;;;;;;0.40;0.10;;;;;;;;;;5038973;28;20088;-70
2021/09/05 06:34:41;;;;;;;0.20;0.10;;;;;;;;;;5035297;28;20836;-69
2021/09/05 06:37:08;;;;;;;0.13;0.10;;;;;;;;;;5038723;28;20026;-71
2021/09/05 06:39:35;;;;;;;0.55;0.13;;;;;;;;;;5043453;28;20013;-70
2021/09/05 06:42:02;;;;;;;0.38;0.17;;;;;;;;;;5034740;28;20036;-70
2021/09/05 06:44:32;;;;;;;1.27;0.30;;;;;;;;;;5039591;28;20101;-70
2021/09/05 06:47:00;;;;;;;0.10;0.00;;;;;;;;;;5037907;28;20041;-72
2021/09/05 06:49:27;;;;;;;0.80;0.20;;;;;;;;;;5039124;28;20017;-69
2021/09/05 06:51:54;;;;;;;0.13;0.10;;;;;;;;;;5035940;28;20025;-70
2021/09/05 06:54:22;;;;;;;0.38;0.28;;;;;;;;;;5049643;28;20036;-69
2021/09/05 06:56:49;;;;;;;0.32;0.10;;;;;;;;;;5049259;28;20489;-70
2021/09/05 06:59:16;;;;;;;0.65;0.13;;;;;;;;;;5045280;28;20033;-68
2021/09/05 07:01:43;;;;;;;0.60;0.30;;;;;;;;;;5035175;28;20063;-69
2021/09/05 07:04:11;;;;;;;0.73;0.10;;;;;;;;;;5035629;28;20025;-70
2021/09/05 07:06:39;;;;;;;0.30;0.10;;;;;;;;;;5039116;28;20025;-70
2021/09/05 07:09:06;;;;;;;0.45;0.10;;;;;;;;;;5048072;28;20017;-71
2021/09/05 07:11:33;;;;;;;0.17;0.10;;;;;;;;;;5055264;28;20397;-70
2021/09/05 07:14:00;;;;;;;0.17;0.10;;;;;;;;;;5038972;28;20120;-71
2021/09/05 07:16:27;;;;;;;1.27;0.10;;;;;;;;;;5045365;28;20017;-69
2021/09/05 07:18:54;;;;;;;0.20;0.10;;;;;;;;;;5049747;28;20025;-71
2021/09/05 07:21:21;;;;;;;0.50;0.20;;;;;;;;;;5054232;28;20025;-70
2021/09/05 07:23:48;;;;;;;0.30;0.20;;;;;;;;;;5045682;28;20032;-69
2021/09/05 07:26:16;;;;;;;0.60;0.30;;;;;;;;;;5034875;28;20029;-69
2021/09/05 07:28:43;;;;;;;2.22;1.85;;;;;;;;;;5048773;28;20520;-70
2021/09/05 07:31:10;;;;;;;3.17;2.03;;;;;;;;;;5035235;28;20425;-68
2021/09/05 07:33:37;;;;;;;1.00;0.80;;;;;;;;;;5049600;28;20024;-70
2021/09/05 07:36:04;;;;;;;2.28;0.70;;;;;;;;;;5042522;28;20061;-70
2021/09/05 07:38:31;;;;;;;6.25;3.10;;;;;;;;;;5034979;28;20057;-70
2021/09/05 07:40:58;;;;;;;0.40;0.20;;;;;;;;;;5034863;28;20104;-70
2021/09/05 07:43:26;;;;;;;0.85;0.30;;;;;;;;;;5036654;28;20033;-72
2021/09/05 07:45:53;;;;;;;2.60;0.60;;;;;;;;;;5051682;28;20025;-71
2021/09/05 07:48:20;;;;;;;1.35;0.20;;;;;;;;;;5053375;28;20115;-73
2021/09/05 07:50:47;;;;;;;0.60;0.30;;;;;;;;;;5039533;28;20017;-74
2021/09/05 07:53:14;;;;;;;1.05;0.30;;;;;;;;;;5043903;28;20040;-73
2021/09/05 07:55:41;;;;;;;0.88;0.35;;;;;;;;;;5036932;28;20026;-72
2021/09/05 07:58:09;;;;;;;0.20;0.10;;;;;;;;;;5035130;28;20506;-73
2021/09/05 08:00:36;;;;;;;0.30;0.20;;;;;;;;;;5034816;28;20025;-72
2021/09/05 08:03:06;;;;;;;1.60;0.20;;;;;;;;;;5034337;28;20501;-72
2021/09/05 08:05:33;;;;;;;1.52;0.30;;;;;;;;;;5043733;28;20025;-73
2021/09/05 08:08:00;;;;;;;0.47;0.30;;;;;;;;;;5043313;28;20508;-75
2021/09/05 08:10:27;;;;;;;0.22;0.13;;;;;;;;;;5034766;28;20045;-72
2021/09/05 08:12:54;;;;;;;1.13;0.40;;;;;;;;;;5042313;28;20079;-73
2021/09/05 08:15:22;;;;;;;1.92;0.52;;;;;;;;;;5036217;28;20107;-73
2021/09/05 08:17:49;;;;;;;1.05;0.30;;;;;;;;;;5037189;28;20021;-73
2021/09/05 08:20:16;;;;;;;1.58;0.45;;;;;;;;;;5033572;28;20033;-72
2021/09/05 08:22:46;;;;;;;2.50;0.52;;;;;;;;;;5034242;28;20021;-73
2021/09/05 08:25:14;;;;;;;1.08;0.60;;;;;;;;;;5039919;28;20076;-73
2021/09/05 08:27:41;;;;;;;1.20;0.57;;;;;;;;;;5034025;28;20512;-74
2021/09/05 08:30:09;;;;;;;1.95;0.50;;;;;;;;;;5033733;28;20117;-75
2021/09/05 08:32:36;;;;;;;0.98;0.68;;;;;;;;;;5034459;28;20028;-73
2021/09/05 08:35:03;;;;;;;1.58;0.73;;;;;;;;;;5040231;28;20037;-74
2021/09/05 08:37:30;;;;;;;1.55;0.60;;;;;;;;;;5037433;28;20394;-72
2021/09/05 08:39:58;;;;;;;0.80;0.52;;;;;;;;;;5040820;28;20486;-74
2021/09/05 08:42:26;;;;;;;0.82;0.43;;;;;;;;;;5038733;28;20040;-72
2021/09/05 08:44:53;;;;;;;0.95;0.60;;;;;;;;;;5034732;28;20045;-72
2021/09/05 08:47:20;;;;;;;2.70;0.73;;;;;;;;;;5039177;28;20105;-72
2021/09/05 08:49:48;;;;;;;1.75;0.63;;;;;;;;;;5034381;28;20025;-73
2021/09/05 08:52:16;;;;;;;2.85;0.57;;;;;;;;;;5033557;28;20044;-73
2021/09/05 08:54:43;;;;;;;0.70;0.30;;;;;;;;;;5038582;28;20055;-73
2021/09/05 08:57:10;;;;;;;3.38;0.45;;;;;;;;;;5033858;28;20425;-73
2021/09/05 08:59:37;;;;;;;2.00;0.50;;;;;;;;;;5045019;28;20040;-72
2021/09/05 09:02:04;;;;;;;2.00;0.50;;;;;;;;;;5033944;28;20021;-73
2021/09/05 09:04:41;;;;;;;0.93;0.40;;;;;;;;;;5033017;28;20032;-73
2021/09/05 09:07:12;;;;;;;1.55;0.55;;;;;;;;;;5040235;28;20036;-72
2021/09/05 09:09:44;;;;;;;2.80;0.80;;;;;;;;;;5038890;28;20538;-72
2021/09/05 09:12:11;;;;;;;2.03;1.00;;;;;;;;;;5040743;28;20465;-72
2021/09/05 09:14:44;;;;;;;3.67;1.90;;;;;;;;;;5034871;28;20025;-72
2021/09/05 09:17:12;;;;;;;4.88;2.08;;;;;;;;;;5044072;28;20460;-72
2021/09/05 09:19:44;;;;;;;3.05;1.77;;;;;;;;;;5040005;28;20026;-71
2021/09/05 09:22:21;;;;;;;1.90;1.50;;;;;;;;;;5036906;28;20029;-71
2021/09/05 09:24:48;;;;;;;3.00;1.83;;;;;;;;;;5044322;28;20108;-70
2021/09/05 09:27:16;;;;;;;1.48;0.90;;;;;;;;;;5052968;28;20589;-69
2021/09/05 09:29:43;;;;;;;1.60;1.00;;;;;;;;;;5036480;28;20405;-70
2021/09/05 09:32:11;;;;;;;4.03;1.95;;;;;;;;;;5036434;28;20021;-70
2021/09/05 09:34:39;;;;;;;3.97;2.00;;;;;;;;;;5043882;28;20018;-70
2021/09/05 09:37:11;;;;;;;4.43;2.65;;;;;;;;;;5042950;28;20021;-70
2021/09/05 09:39:43;;;;;;;3.95;1.90;;;;;;;;;;5032763;28;20478;-70
2021/09/05 09:42:30;;;;;;;4.18;1.95;;;;;;;;;;5033987;28;20033;-70
2021/09/05 09:44:57;;;;;;;1.85;1.13;;;;;;;;;;5032457;28;20021;-70
2021/09/05 09:47:25;;;;;;;2.75;1.10;;;;;;;;;;5031859;28;20151;-71
2021/09/05 09:49:52;;;;;;;4.43;1.27;;;;;;;;;;5041488;28;20382;-71
2021/09/05 09:52:19;;;;;;;3.20;0.80;;;;;;;;;;5047638;28;20028;-70
2021/09/05 09:54:46;;;;;;;2.42;0.90;;;;;;;;;;5033007;28;20045;-70
2021/09/05 09:57:14;;;;;;;2.97;1.40;;;;;;;;;;5040008;28;20033;-70
2021/09/05 09:59:41;;;;;;;2.78;1.00;;;;;;;;;;5044576;28;20048;-71
2021/09/05 10:02:12;;;;;;;1.60;1.35;;;;;;;;;;5036778;28;20021;-70
2021/09/05 10:04:39;;;;;;;2.38;1.00;;;;;;;;;;5052267;28;20045;-70
2021/09/05 10:07:06;;;;;;;2.30;0.98;;;;;;;;;;5044195;28;20040;-70
2021/09/05 10:09:34;;;;;;;2.65;1.30;;;;;;;;;;5034647;28;20022;-70
2021/09/05 10:12:01;;;;;;;2.58;1.52;;;;;;;;;;5034808;28;20128;-70
2021/09/05 10:14:28;;;;;;;3.35;1.30;;;;;;;;;;5046946;28;20498;-71
2021/09/05 10:16:55;;;;;;;1.90;1.38;;;;;;;;;;5032924;28;20513;-69
2021/09/05 10:19:22;;;;;;;2.80;1.23;;;;;;;;;;5042899;28;20025;-69
2021/09/05 10:21:50;;;;;;;2.78;1.33;;;;;;;;;;5042828;28;20021;-69
2021/09/05 10:24:18;;;;;;;1.95;1.25;;;;;;;;;;5034011;28;20375;-70
2021/09/05 10:27:05;;;;;;;2.60;1.23;;;;;;;;;;5031449;28;20037;-69
2021/09/05 10:29:32;;;;;;;2.53;1.10;;;;;;;;;;5036052;28;20075;-70
2021/09/05 10:31:59;;;;;;;4.28;1.30;;;;;;;;;;5048059;28;20401;-72
2021/09/05 10:34:33;;;;;;;2.78;1.00;;;;;;;;;;5034113;28;20044;-70
2021/09/05 10:37:07;;;;;;;4.30;1.30;;;;;;;;;;5035801;28;20375;-70
2021/09/05 10:39:35;;;;;;;2.47;1.00;;;;;;;;;;5047475;28;20021;-69
2021/09/05 10:42:02;;;;;;;4.03;1.65;;;;;;;;;;5042550;28;20025;-72
2021/09/05 10:44:29;;;;;;;3.42;1.60;;;;;;;;;;5046556;28;20029;-71
2021/09/05 10:46:56;;;;;;;3.00;1.85;;;;;;;;;;5031799;28;20110;-72
2021/09/05 10:49:39;;;;;;;4.25;1.30;;;;;;;;;;5032342;28;20466;-71
2021/09/05 10:52:07;;;;;;;2.60;1.40;;;;;;;;;;5031953;28;20037;-71
2021/09/05 10:54:44;;;;;;;2.53;1.20;;;;;;;;;;5031665;28;20060;-70
2021/09/05 10:57:11;;;;;;;3.30;1.35;;;;;;;;;;5038661;28;20030;-70
2021/09/05 10:59:39;;;;;;;1.52;1.13;;;;;;;;;;5031461;28;20025;-72
2021/09/05 11:02:06;;;;;;;2.72;1.17;;;;;;;;;;5030405;28;20107;-71
2021/09/05 11:04:43;;;;;;;2.55;1.33;;;;;;;;;;5039966;28;20025;-71
2021/09/05 11:07:11;;;;;;;2.60;0.98;;;;;;;;;;5038198;28;20041;-71
2021/09/05 11:09:42;;;;;;;2.38;0.95;;;;;;;;;;5030701;28;20036;-71
2021/09/05 11:12:15;;;;;;;1.85;1.20;;;;;;;;;;5033391;28;20101;-70
2021/09/05 11:17:23;;;;;;;0.95;0.50;;;;;;;;;;5032517;28;20394;-70
2021/09/05 11:19:49;;;;;;;;;;;;;;;;;;5048779;28;20028;-71
2021/09/05 11:22:24;;;;;;;1.30;0.65;;;;;;;;;;5043396;28;19912;-72
2021/09/05 11:25:11;;;;;;;1.58;0.52;;;;;;;;;;5031508;28;20397;-71
2021/09/05 11:27:42;;;;;;;1.13;0.50;;;;;;;;;;5033901;28;20489;-69
2021/09/05 11:30:14;;;;;;;1.15;0.40;;;;;;;;;;5043329;28;20720;-70
2021/09/05 11:32:41;;;;;;;1.08;0.38;;;;;;;;;;5038420;28;20108;-69
2021/09/05 11:35:09;;;;;;;1.75;0.40;;;;;;;;;;5036059;28;20021;-69
2021/09/05 11:37:41;;;;;;;2.50;0.40;;;;;;;;;;5034210;28;20049;-70
2021/09/05 11:40:19;;;;;;;1.55;0.43;;;;;;;;;;5038520;28;20025;-70
2021/09/05 11:42:47;;;;;;;2.92;0.52;;;;;;;;;;5038062;28;20017;-70
2021/09/05 11:45:15;;;;;;;1.52;0.70;;;;;;;;;;5036630;28;20086;-70
2021/09/05 11:47:43;;;;;;;1.90;0.40;;;;;;;;;;5037114;28;20056;-70
2021/09/05 11:50:11;;;;;;;2.45;0.65;;;;;;;;;;5046763;28;20025;-70
2021/09/05 11:52:39;;;;;;;0.93;0.50;;;;;;;;;;5036545;28;20017;-70
2021/09/05 11:55:14;;;;;;;1.08;0.40;;;;;;;;;;5039833;28;20021;-69
2021/09/05 11:58:05;;;;;;;1.08;0.40;;;;;;;;;;5036408;28;20025;-70
2021/09/05 12:00:38;;;;;;;1.48;0.40;;;;;;;;;;5031028;28;20041;-68
2021/09/05 12:03:09;;;;;;;1.35;0.60;;;;;;;;;;5034917;28;20132;-69
2021/09/05 12:05:37;;;;;;;1.63;0.82;;;;;;;;;;5040206;28;20103;-70
2021/09/05 12:08:04;;;;;;;1.17;0.50;;;;;;;;;;5033936;28;20026;-71
2021/09/05 12:10:32;;;;;;;2.65;0.70;;;;;;;;;;5037627;28;20026;-70
2021/09/05 12:13:07;;;;;;;0.95;0.57;;;;;;;;;;5044536;28;20111;-69
2021/09/05 12:15:38;;;;;;;0.75;0.32;;;;;;;;;;5038899;28;20558;-69
2021/09/05 12:18:25;;;;;;;3.20;0.45;;;;;;;;;;5034208;28;20059;-69
2021/09/05 12:20:58;;;;;;;0.90;0.60;;;;;;;;;;5034597;28;20035;-70
2021/09/05 12:23:29;;;;;;;1.52;0.55;;;;;;;;;;5044873;28;20024;-68
2021/09/05 12:25:57;;;;;;;0.98;0.40;;;;;;;;;;5034869;28;20132;-70
2021/09/05 12:28:34;;;;;;;0.90;0.30;;;;;;;;;;5045697;28;20025;-69
2021/09/05 12:31:02;;;;;;;0.85;0.50;;;;;;;;;;5033218;28;20033;-71
2021/09/05 12:33:29;;;;;;;0.60;0.32;;;;;;;;;;5036189;28;20040;-69
2021/09/05 12:36:06;;;;;;;1.23;0.60;;;;;;;;;;5042730;28;20060;-70
2021/09/05 12:38:34;;;;;;;1.58;0.60;;;;;;;;;;5031560;28;20140;-70
2021/09/05 12:41:09;;;;;;;1.70;0.52;;;;;;;;;;5034930;28;20029;-69
2021/09/05 12:43:35;;;;;;;;;;;;;;;;;;5039981;28;20364;-70
2021/09/05 12:46:02;;;;;;;0.88;0.40;;;;;;;;;;5034001;28;20422;-70
2021/09/05 12:48:35;;;;;;;0.63;0.40;;;;;;;;;;5039357;28;20029;-70
2021/09/05 12:51:04;;;;;;;1.65;0.77;;;;;;;;;;5036102;28;20032;-71
2021/09/05 12:53:31;;;;;;;1.35;0.50;;;;;;;;;;5032604;28;20029;-71
2021/09/05 12:55:58;;;;;;;1.52;0.50;;;;;;;;;;5033875;28;20028;-70
2021/09/05 12:58:25;;;;;;;0.93;0.55;;;;;;;;;;5033840;28;20030;-70
2021/09/05 13:00:53;;;;;;;1.85;0.52;;;;;;;;;;5039016;28;20025;-70
2021/09/05 13:03:20;;;;;;;2.05;0.70;;;;;;;;;;5049453;28;20117;-70
2021/09/05 13:05:47;;;;;;;0.93;0.60;;;;;;;;;;5034969;28;20028;-69
2021/09/05 13:08:14;;;;;;;1.50;0.55;;;;;;;;;;5034677;28;20041;-70
2021/09/05 13:10:41;;;;;;;1.20;0.50;;;;;;;;;;5051190;28;20045;-69
2021/09/05 13:13:08;;;;;;;1.88;0.60;;;;;;;;;;5052196;28;20025;-69
2021/09/05 13:15:35;;;;;;;0.60;0.30;;;;;;;;;;5048055;28;20075;-69
2021/09/05 13:18:02;;;;;;;3.92;0.85;;;;;;;;;;5052274;28;20112;-72
2021/09/05 13:20:29;;;;;;;1.08;0.40;;;;;;;;;;5038145;28;20029;-68
2021/09/05 13:22:57;;;;;;;1.23;0.43;;;;;;;;;;5040289;28;20112;-70
2021/09/05 13:25:24;;;;;;;1.73;0.60;;;;;;;;;;5033889;28;20025;-70
2021/09/05 13:27:51;;;;;;;1.02;0.50;;;;;;;;;;5038051;28;20033;-69
2021/09/05 13:30:19;;;;;;;1.02;0.52;;;;;;;;;;5047966;28;20037;-70
2021/09/05 13:32:46;;;;;;;0.73;0.50;;;;;;;;;;5034620;28;20382;-70
2021/09/05 13:35:14;;;;;;;1.33;0.40;;;;;;;;;;5034383;28;20497;-70
2021/09/05 13:37:41;;;;;;;0.60;0.35;;;;;;;;;;5044049;28;20554;-70
2021/09/05 13:40:08;;;;;;;2.28;0.60;;;;;;;;;;5033401;28;20033;-70
2021/09/05 13:42:35;;;;;;;3.15;0.70;;;;;;;;;;5045901;28;20501;-70
2021/09/05 13:45:03;;;;;;;0.80;0.40;;;;;;;;;;5040757;28;20025;-69
2021/09/05 13:47:30;;;;;;;0.85;0.40;;;;;;;;;;5037432;28;20091;-69
2021/09/05 13:49:58;;;;;;;1.98;0.30;;;;;;;;;;5038092;28;20034;-69
2021/09/05 13:52:26;;;;;;;1.33;0.20;;;;;;;;;;5053709;28;20067;-69
2021/09/05 13:54:53;;;;;;;1.17;0.20;;;;;;;;;;5051535;28;20041;-69
2021/09/05 13:57:20;;;;;;;1.88;0.40;;;;;;;;;;5053029;28;20035;-68
2021/09/05 13:59:47;;;;;;;1.98;0.20;;;;;;;;;;5032796;28;20482;-69
2021/09/05 14:02:14;;;;;;;2.28;0.25;;;;;;;;;;5038481;28;20029;-70
2021/09/05 14:04:42;;;;;;;1.10;0.20;;;;;;;;;;5034467;28;20032;-69
2021/09/05 14:07:09;;;;;;;1.92;0.28;;;;;;;;;;5038946;28;20053;-69
2021/09/05 14:09:37;;;;;;;0.30;0.10;;;;;;;;;;5034517;28;20215;-71
2021/09/05 14:12:04;;;;;;;0.40;0.10;;;;;;;;;;5034172;28;20374;-70
2021/09/05 14:14:31;;;;;;;2.08;0.25;;;;;;;;;;5035921;28;20438;-69
2021/09/05 14:16:58;;;;;;;2.05;0.20;;;;;;;;;;5036463;28;20100;-70
2021/09/05 14:19:25;;;;;;;0.47;0.10;;;;;;;;;;5032200;28;20022;-70
2021/09/05 14:21:52;;;;;;;0.57;0.10;;;;;;;;;;5033137;28;20093;-69
2021/09/05 14:24:20;;;;;;;1.83;0.57;;;;;;;;;;5037078;28;20025;-69
2021/09/05 14:27:00;;;;;;;0.47;0.25;;;;;;;;;;5052846;28;20355;-70
2021/09/05 14:32:20;;;;;;;0.82;0.20;;;;;;;;;;5032814;28;20038;-70
2021/09/05 14:35:16;;;;;;;1.77;0.32;;;;;;;;;;5032887;28;20493;-70
2021/09/05 14:54:14;;;;;;;0.98;0.10;;;;;;;;;;5038179;28;20564;-70
2021/09/05 14:56:41;;;;;;;0.77;0.10;;;;;;;;;;5049001;28;20029;-70
2021/09/05 14:59:20;;;;;;;1.33;0.10;;;;;;;;;;5037290;28;20105;-71
2021/09/05 15:01:56;;;;;;;0.50;0.20;;;;;;;;;;5035466;28;20097;-70
2021/09/05 15:12:15;;;;;;;0.20;0.20;;;;;;;;;;5056239;28;20040;-71
2021/09/05 15:14:42;;;;;;;0.80;0.20;;;;;;;;;;5041077;28;20025;-69
2021/09/05 15:17:09;;;;;;;0.75;0.22;;;;;;;;;;5037412;28;20056;-69
2021/09/05 15:19:36;;;;;;;2.03;0.38;;;;;;;;;;5046639;28;20032;-70
2021/09/05 15:22:25;;;;;;;2.38;0.50;;;;;;;;;;5055482;28;20075;-69